Terminal Aerodrome Forecast
Issued by NWS Green Bay, WI

Home | Current Version | Previous Version | Text Only | Print | Product List | Glossary Off
Versions: 1 2 3 4 5 6 7 8 9 10 11 12 13 14 15 16 17 18 19 20 21 22 23 24

000
FTUS43 KGRB 031735
TAFGRB
TAF
KGRB 031735Z 0318/0418 28005KT P6SM OVC025
     FM032200 VRB03KT P6SM OVC030
     FM040700 00000KT P6SM OVC080
     FM041500 18006KT 2SM -SN SCT015 OVC025
      TEMPO 0416/0418 1SM -SN SCT008 OVC012=

USA.gov is the U.S. government's official web portal to all federal, state and local government web resources and services.